sensor_id;sensor_type;location;lat;lon;timestamp;temperature;humidity
15617;DHT22;7908;51.688;7.130;2023-03-05T00:01:45;4.80;99.90
15617;DHT22;7908;51.688;7.130;2023-03-05T00:04:14;4.80;99.90
15617;DHT22;7908;51.688;7.130;2023-03-05T00:06:43;4.70;99.90
15617;DHT22;7908;51.688;7.130;2023-03-05T00:09:12;4.70;99.90
15617;DHT22;7908;51.688;7.130;2023-03-05T00:11:43;4.70;99.90
15617;DHT22;7908;51.688;7.130;2023-03-05T00:14:12;4.60;99.90
15617;DHT22;7908;51.688;7.130;2023-03-05T00:16:42;4.60;99.90
15617;DHT22;7908;51.688;7.130;2023-03-05T00:19:11;4.60;99.90
15617;DHT22;7908;51.688;7.130;2023-03-05T00:21:40;4.60;99.90
15617;DHT22;7908;51.688;7.130;2023-03-05T00:24:12;4.60;99.90
15617;DHT22;7908;51.688;7.130;2023-03-05T00:26:40;4.60;99.90
15617;DHT22;7908;51.688;7.130;2023-03-05T00:29:15;4.50;99.90
15617;DHT22;7908;51.688;7.130;2023-03-05T00:31:45;4.60;99.90
15617;DHT22;7908;51.688;7.130;2023-03-05T00:34:16;4.50;99.90
15617;DHT22;7908;51.688;7.130;2023-03-05T00:36:46;4.50;99.90
15617;DHT22;7908;51.688;7.130;2023-03-05T00:39:17;4.50;99.90
15617;DHT22;7908;51.688;7.130;2023-03-05T00:41:49;4.50;99.90
15617;DHT22;7908;51.688;7.130;2023-03-05T00:44:19;4.50;99.90
15617;DHT22;7908;51.688;7.130;2023-03-05T00:46:48;4.60;99.90
15617;DHT22;7908;51.688;7.130;2023-03-05T00:49:17;4.60;99.90
15617;DHT22;7908;51.688;7.130;2023-03-05T00:51:47;4.50;99.90
15617;DHT22;7908;51.688;7.130;2023-03-05T00:54:16;4.60;99.90
15617;DHT22;7908;51.688;7.130;2023-03-05T00:56:45;4.50;99.90
15617;DHT22;7908;51.688;7.130;2023-03-05T00:59:15;4.50;99.90
15617;DHT22;7908;51.688;7.130;2023-03-05T01:01:45;4.50;99.90
15617;DHT22;7908;51.688;7.130;2023-03-05T01:04:14;4.50;99.90
15617;DHT22;7908;51.688;7.130;2023-03-05T01:06:42;4.50;99.90
15617;DHT22;7908;51.688;7.130;2023-03-05T01:09:12;4.50;99.90
15617;DHT22;7908;51.688;7.130;2023-03-05T01:11:41;4.40;99.90
15617;DHT22;7908;51.688;7.130;2023-03-05T01:14:10;4.40;99.90
15617;DHT22;7908;51.688;7.130;2023-03-05T01:16:39;4.40;99.90
15617;DHT22;7908;51.688;7.130;2023-03-05T01:19:09;4.40;99.90
15617;DHT22;7908;51.688;7.130;2023-03-05T01:21:37;4.40;99.90
15617;DHT22;7908;51.688;7.130;2023-03-05T01:24:07;4.40;99.90
15617;DHT22;7908;51.688;7.130;2023-03-05T01:26:36;4.40;99.90
15617;DHT22;7908;51.688;7.130;2023-03-05T01:29:06;4.40;99.90
15617;DHT22;7908;51.688;7.130;2023-03-05T01:31:35;4.40;99.90
15617;DHT22;7908;51.688;7.130;2023-03-05T01:34:06;4.40;99.90
15617;DHT22;7908;51.688;7.130;2023-03-05T01:36:36;4.40;99.90
15617;DHT22;7908;51.688;7.130;2023-03-05T01:39:05;4.40;99.90
15617;DHT22;7908;51.688;7.130;2023-03-05T01:41:34;4.40;99.90
15617;DHT22;7908;51.688;7.130;2023-03-05T01:44:02;4.40;99.90
15617;DHT22;7908;51.688;7.130;2023-03-05T01:46:33;4.40;99.90
15617;DHT22;7908;51.688;7.130;2023-03-05T01:49:09;4.40;99.90
15617;DHT22;7908;51.688;7.130;2023-03-05T01:51:45;4.40;99.90
15617;DHT22;7908;51.688;7.130;2023-03-05T01:54:18;4.40;99.90
15617;DHT22;7908;51.688;7.130;2023-03-05T01:56:49;4.40;99.90
15617;DHT22;7908;51.688;7.130;2023-03-05T01:59:21;4.30;99.90
15617;DHT22;7908;51.688;7.130;2023-03-05T02:01:54;4.30;99.90
15617;DHT22;7908;51.688;7.130;2023-03-05T02:04:27;4.30;99.90
15617;DHT22;7908;51.688;7.130;2023-03-05T02:06:59;4.30;99.90
15617;DHT22;7908;51.688;7.130;2023-03-05T02:09:28;4.30;99.90
15617;DHT22;7908;51.688;7.130;2023-03-05T02:11:57;4.30;99.90
15617;DHT22;7908;51.688;7.130;2023-03-05T02:14:26;4.30;99.90
15617;DHT22;7908;51.688;7.130;2023-03-05T02:16:55;4.30;99.90
15617;DHT22;7908;51.688;7.130;2023-03-05T02:19:26;4.30;99.90
15617;DHT22;7908;51.688;7.130;2023-03-05T02:21:56;4.30;99.90
15617;DHT22;7908;51.688;7.130;2023-03-05T02:24:34;4.30;99.90
15617;DHT22;7908;51.688;7.130;2023-03-05T02:27:04;4.20;99.90
15617;DHT22;7908;51.688;7.130;2023-03-05T02:29:35;4.20;99.90
15617;DHT22;7908;51.688;7.130;2023-03-05T02:32:06;4.20;99.90
15617;DHT22;7908;51.688;7.130;2023-03-05T02:34:36;4.20;99.90
15617;DHT22;7908;51.688;7.130;2023-03-05T02:37:06;4.30;99.90
15617;DHT22;7908;51.688;7.130;2023-03-05T02:39:36;4.30;99.90
15617;DHT22;7908;51.688;7.130;2023-03-05T02:42:06;4.20;99.90
15617;DHT22;7908;51.688;7.130;2023-03-05T02:44:34;4.20;99.90
15617;DHT22;7908;51.688;7.130;2023-03-05T02:47:03;4.20;99.90
15617;DHT22;7908;51.688;7.130;2023-03-05T02:49:32;4.20;99.90
15617;DHT22;7908;51.688;7.130;2023-03-05T02:52:01;4.20;99.90
15617;DHT22;7908;51.688;7.130;2023-03-05T02:54:31;4.20;99.90
15617;DHT22;7908;51.688;7.130;2023-03-05T02:57:00;4.30;99.90
15617;DHT22;7908;51.688;7.130;2023-03-05T02:59:28;4.30;99.90
15617;DHT22;7908;51.688;7.130;2023-03-05T03:01:57;4.30;99.90
15617;DHT22;7908;51.688;7.130;2023-03-05T03:04:26;4.30;99.90
15617;DHT22;7908;51.688;7.130;2023-03-05T03:06:54;4.30;99.90
15617;DHT22;7908;51.688;7.130;2023-03-05T03:09:23;4.20;99.90
15617;DHT22;7908;51.688;7.130;2023-03-05T03:11:55;4.20;99.90
15617;DHT22;7908;51.688;7.130;2023-03-05T03:14:23;4.20;99.90
15617;DHT22;7908;51.688;7.130;2023-03-05T03:16:52;4.20;99.90
15617;DHT22;7908;51.688;7.130;2023-03-05T03:19:20;4.20;99.90
15617;DHT22;7908;51.688;7.130;2023-03-05T03:21:49;4.20;99.90
15617;DHT22;7908;51.688;7.130;2023-03-05T03:24:20;4.20;99.90
15617;DHT22;7908;51.688;7.130;2023-03-05T03:26:49;4.10;99.90
15617;DHT22;7908;51.688;7.130;2023-03-05T03:29:19;4.10;99.90
15617;DHT22;7908;51.688;7.130;2023-03-05T03:31:47;4.10;99.90
15617;DHT22;7908;51.688;7.130;2023-03-05T03:34:17;4.10;99.90
15617;DHT22;7908;51.688;7.130;2023-03-05T03:36:47;4.00;99.90
15617;DHT22;7908;51.688;7.130;2023-03-05T03:39:16;3.90;99.90
15617;DHT22;7908;51.688;7.130;2023-03-05T03:41:46;3.80;99.90
15617;DHT22;7908;51.688;7.130;2023-03-05T03:44:16;3.80;99.90
15617;DHT22;7908;51.688;7.130;2023-03-05T03:46:48;3.70;99.90
15617;DHT22;7908;51.688;7.130;2023-03-05T03:49:19;3.70;99.90
15617;DHT22;7908;51.688;7.130;2023-03-05T03:51:50;3.60;99.90
15617;DHT22;7908;51.688;7.130;2023-03-05T03:54:21;3.60;99.90
15617;DHT22;7908;51.688;7.130;2023-03-05T03:56:49;3.60;99.90
15617;DHT22;7908;51.688;7.130;2023-03-05T03:59:18;3.50;99.90
15617;DHT22;7908;51.688;7.130;2023-03-05T04:01:48;3.50;99.90
15617;DHT22;7908;51.688;7.130;2023-03-05T04:04:17;3.50;99.90
15617;DHT22;7908;51.688;7.130;2023-03-05T04:06:46;3.50;99.90
15617;DHT22;7908;51.688;7.130;2023-03-05T04:09:15;3.50;99.90
15617;DHT22;7908;51.688;7.130;2023-03-05T04:11:43;3.50;99.90
15617;DHT22;7908;51.688;7.130;2023-03-05T04:14:12;3.50;99.90
15617;DHT22;7908;51.688;7.130;2023-03-05T04:16:41;3.50;99.90
15617;DHT22;7908;51.688;7.130;2023-03-05T04:19:11;3.50;99.90
15617;DHT22;7908;51.688;7.130;2023-03-05T04:21:39;3.50;99.90
15617;DHT22;7908;51.688;7.130;2023-03-05T04:24:08;3.50;99.90
15617;DHT22;7908;51.688;7.130;2023-03-05T04:26:37;3.50;99.90
15617;DHT22;7908;51.688;7.130;2023-03-05T04:29:05;3.50;99.90
15617;DHT22;7908;51.688;7.130;2023-03-05T04:31:34;3.40;99.90
15617;DHT22;7908;51.688;7.130;2023-03-05T04:34:02;3.40;99.90
15617;DHT22;7908;51.688;7.130;2023-03-05T04:36:32;3.30;99.90
15617;DHT22;7908;51.688;7.130;2023-03-05T04:39:01;3.40;99.90
15617;DHT22;7908;51.688;7.130;2023-03-05T04:41:31;3.40;99.90
15617;DHT22;7908;51.688;7.130;2023-03-05T04:43:59;3.30;99.90
15617;DHT22;7908;51.688;7.130;2023-03-05T04:46:28;3.30;99.90
15617;DHT22;7908;51.688;7.130;2023-03-05T04:48:57;3.30;99.90
15617;DHT22;7908;51.688;7.130;2023-03-05T04:51:26;3.30;99.90
15617;DHT22;7908;51.688;7.130;2023-03-05T04:53:56;3.30;99.90
15617;DHT22;7908;51.688;7.130;2023-03-05T04:56:24;3.30;99.90
15617;DHT22;7908;51.688;7.130;2023-03-05T04:58:53;3.30;99.90
15617;DHT22;7908;51.688;7.130;2023-03-05T05:01:22;3.30;99.90
15617;DHT22;7908;51.688;7.130;2023-03-05T05:03:51;3.20;99.90
15617;DHT22;7908;51.688;7.130;2023-03-05T05:06:19;3.20;99.90
15617;DHT22;7908;51.688;7.130;2023-03-05T05:08:48;3.20;99.90
15617;DHT22;7908;51.688;7.130;2023-03-05T05:11:18;3.20;99.90
15617;DHT22;7908;51.688;7.130;2023-03-05T05:13:47;3.30;99.90
15617;DHT22;7908;51.688;7.130;2023-03-05T05:16:16;3.30;99.90
15617;DHT22;7908;51.688;7.130;2023-03-05T05:18:45;3.40;99.90
15617;DHT22;7908;51.688;7.130;2023-03-05T05:21:15;3.30;99.90
15617;DHT22;7908;51.688;7.130;2023-03-05T05:23:44;3.30;99.90
15617;DHT22;7908;51.688;7.130;2023-03-05T05:26:14;3.30;99.90
15617;DHT22;7908;51.688;7.130;2023-03-05T05:28:43;3.30;99.90
15617;DHT22;7908;51.688;7.130;2023-03-05T05:31:14;3.30;99.90
15617;DHT22;7908;51.688;7.130;2023-03-05T05:33:43;3.30;99.90
15617;DHT22;7908;51.688;7.130;2023-03-05T05:36:16;3.30;99.90
15617;DHT22;7908;51.688;7.130;2023-03-05T05:38:45;3.30;99.90
15617;DHT22;7908;51.688;7.130;2023-03-05T05:41:15;3.30;99.90
15617;DHT22;7908;51.688;7.130;2023-03-05T05:43:45;3.30;99.90
15617;DHT22;7908;51.688;7.130;2023-03-05T05:46:16;3.40;99.90
15617;DHT22;7908;51.688;7.130;2023-03-05T05:48:48;3.30;99.90
15617;DHT22;7908;51.688;7.130;2023-03-05T05:51:18;3.30;99.90
15617;DHT22;7908;51.688;7.130;2023-03-05T05:53:47;3.30;99.90
15617;DHT22;7908;51.688;7.130;2023-03-05T05:56:17;3.40;99.90
15617;DHT22;7908;51.688;7.130;2023-03-05T05:58:47;3.40;99.90
15617;DHT22;7908;51.688;7.130;2023-03-05T06:01:19;3.40;99.90
15617;DHT22;7908;51.688;7.130;2023-03-05T06:03:47;3.40;99.90
15617;DHT22;7908;51.688;7.130;2023-03-05T06:06:18;3.40;99.90
15617;DHT22;7908;51.688;7.130;2023-03-05T06:08:48;3.40;99.90
15617;DHT22;7908;51.688;7.130;2023-03-05T06:11:18;3.30;99.90
15617;DHT22;7908;51.688;7.130;2023-03-05T06:13:48;3.30;99.90
15617;DHT22;7908;51.688;7.130;2023-03-05T06:16:19;3.40;99.90
15617;DHT22;7908;51.688;7.130;2023-03-05T06:18:48;3.40;99.90
15617;DHT22;7908;51.688;7.130;2023-03-05T06:21:18;3.40;99.90
15617;DHT22;7908;51.688;7.130;2023-03-05T06:23:48;3.40;99.90
15617;DHT22;7908;51.688;7.130;2023-03-05T06:26:21;3.50;99.90
15617;DHT22;7908;51.688;7.130;2023-03-05T06:28:51;3.50;99.90
15617;DHT22;7908;51.688;7.130;2023-03-05T06:31:23;3.50;99.90
15617;DHT22;7908;51.688;7.130;2023-03-05T06:33:53;3.50;99.90
15617;DHT22;7908;51.688;7.130;2023-03-05T06:36:23;3.50;99.90
15617;DHT22;7908;51.688;7.130;2023-03-05T06:38:53;3.50;99.90
15617;DHT22;7908;51.688;7.130;2023-03-05T06:41:23;3.50;99.90
15617;DHT22;7908;51.688;7.130;2023-03-05T06:43:55;3.40;99.90
15617;DHT22;7908;51.688;7.130;2023-03-05T06:46:25;3.40;99.90
15617;DHT22;7908;51.688;7.130;2023-03-05T06:48:55;3.40;99.90
15617;DHT22;7908;51.688;7.130;2023-03-05T06:51:26;3.50;99.90
15617;DHT22;7908;51.688;7.130;2023-03-05T06:53:59;3.50;99.90
15617;DHT22;7908;51.688;7.130;2023-03-05T06:56:27;3.50;99.90
15617;DHT22;7908;51.688;7.130;2023-03-05T06:58:58;3.60;99.90
15617;DHT22;7908;51.688;7.130;2023-03-05T07:01:26;3.60;99.90
15617;DHT22;7908;51.688;7.130;2023-03-05T07:03:55;3.60;99.90
15617;DHT22;7908;51.688;7.130;2023-03-05T07:06:27;3.60;99.90
15617;DHT22;7908;51.688;7.130;2023-03-05T07:08:56;3.60;99.90
15617;DHT22;7908;51.688;7.130;2023-03-05T07:11:28;3.60;99.90
15617;DHT22;7908;51.688;7.130;2023-03-05T07:14:00;3.60;99.90
15617;DHT22;7908;51.688;7.130;2023-03-05T07:16:35;3.60;99.90
15617;DHT22;7908;51.688;7.130;2023-03-05T07:19:10;3.60;99.90
15617;DHT22;7908;51.688;7.130;2023-03-05T07:21:39;3.60;99.90
15617;DHT22;7908;51.688;7.130;2023-03-05T07:24:08;3.60;99.90
15617;DHT22;7908;51.688;7.130;2023-03-05T07:26:39;3.60;99.90
15617;DHT22;7908;51.688;7.130;2023-03-05T07:29:10;3.60;99.90
15617;DHT22;7908;51.688;7.130;2023-03-05T07:31:39;3.70;99.90
15617;DHT22;7908;51.688;7.130;2023-03-05T07:34:09;3.70;99.90
15617;DHT22;7908;51.688;7.130;2023-03-05T07:36:37;3.70;99.90
15617;DHT22;7908;51.688;7.130;2023-03-05T07:39:06;3.70;99.90
15617;DHT22;7908;51.688;7.130;2023-03-05T07:41:35;3.70;99.90
15617;DHT22;7908;51.688;7.130;2023-03-05T07:44:04;3.70;99.90
15617;DHT22;7908;51.688;7.130;2023-03-05T07:46:34;3.80;99.90
15617;DHT22;7908;51.688;7.130;2023-03-05T07:49:03;3.70;99.90
15617;DHT22;7908;51.688;7.130;2023-03-05T07:51:32;3.80;99.90
15617;DHT22;7908;51.688;7.130;2023-03-05T07:54:01;3.80;99.90
15617;DHT22;7908;51.688;7.130;2023-03-05T07:56:33;3.80;99.90
15617;DHT22;7908;51.688;7.130;2023-03-05T07:59:04;3.80;99.90
15617;DHT22;7908;51.688;7.130;2023-03-05T08:01:35;3.80;99.90
15617;DHT22;7908;51.688;7.130;2023-03-05T08:04:04;3.80;99.90
15617;DHT22;7908;51.688;7.130;2023-03-05T08:06:34;3.80;99.90
15617;DHT22;7908;51.688;7.130;2023-03-05T08:09:03;3.90;99.90
15617;DHT22;7908;51.688;7.130;2023-03-05T08:11:31;4.00;99.90
15617;DHT22;7908;51.688;7.130;2023-03-05T08:14:00;4.00;99.90
15617;DHT22;7908;51.688;7.130;2023-03-05T08:16:30;4.00;99.90
15617;DHT22;7908;51.688;7.130;2023-03-05T08:19:01;4.10;99.90
15617;DHT22;7908;51.688;7.130;2023-03-05T08:21:32;4.10;99.90
15617;DHT22;7908;51.688;7.130;2023-03-05T08:24:03;4.10;99.90
15617;DHT22;7908;51.688;7.130;2023-03-05T08:26:34;4.20;99.90
15617;DHT22;7908;51.688;7.130;2023-03-05T08:29:04;4.20;99.90
15617;DHT22;7908;51.688;7.130;2023-03-05T08:31:35;4.20;99.90
15617;DHT22;7908;51.688;7.130;2023-03-05T08:34:07;4.30;99.90
15617;DHT22;7908;51.688;7.130;2023-03-05T08:36:35;4.40;99.90
15617;DHT22;7908;51.688;7.130;2023-03-05T08:39:05;4.50;99.90
15617;DHT22;7908;51.688;7.130;2023-03-05T08:41:34;4.50;99.90
15617;DHT22;7908;51.688;7.130;2023-03-05T08:44:03;4.50;99.90
15617;DHT22;7908;51.688;7.130;2023-03-05T08:46:32;4.50;99.90
15617;DHT22;7908;51.688;7.130;2023-03-05T08:49:02;4.50;99.90
15617;DHT22;7908;51.688;7.130;2023-03-05T08:51:33;4.40;99.90
15617;DHT22;7908;51.688;7.130;2023-03-05T08:54:02;4.20;99.90
15617;DHT22;7908;51.688;7.130;2023-03-05T08:56:33;4.20;99.90
15617;DHT22;7908;51.688;7.130;2023-03-05T08:59:03;4.10;99.90
15617;DHT22;7908;51.688;7.130;2023-03-05T09:01:31;4.00;99.90
15617;DHT22;7908;51.688;7.130;2023-03-05T09:04:00;3.90;99.90
15617;DHT22;7908;51.688;7.130;2023-03-05T09:06:32;3.90;99.90
15617;DHT22;7908;51.688;7.130;2023-03-05T09:09:05;3.90;99.90
15617;DHT22;7908;51.688;7.130;2023-03-05T09:11:35;4.00;99.90
15617;DHT22;7908;51.688;7.130;2023-03-05T09:14:04;4.10;99.90
15617;DHT22;7908;51.688;7.130;2023-03-05T09:16:33;4.20;99.90
15617;DHT22;7908;51.688;7.130;2023-03-05T09:19:04;4.30;99.90
15617;DHT22;7908;51.688;7.130;2023-03-05T09:21:39;4.40;99.90
15617;DHT22;7908;51.688;7.130;2023-03-05T09:24:08;4.50;99.90
15617;DHT22;7908;51.688;7.130;2023-03-05T09:26:39;4.60;99.90
15617;DHT22;7908;51.688;7.130;2023-03-05T09:29:12;4.70;99.90
15617;DHT22;7908;51.688;7.130;2023-03-05T09:31:41;4.70;99.90
15617;DHT22;7908;51.688;7.130;2023-03-05T09:34:10;4.70;99.90
15617;DHT22;7908;51.688;7.130;2023-03-05T09:36:41;4.70;99.90
15617;DHT22;7908;51.688;7.130;2023-03-05T09:39:10;4.80;99.90
15617;DHT22;7908;51.688;7.130;2023-03-05T09:41:57;4.80;99.90
15617;DHT22;7908;51.688;7.130;2023-03-05T09:44:36;4.70;99.90
15617;DHT22;7908;51.688;7.130;2023-03-05T09:47:22;4.60;99.90
15617;DHT22;7908;51.688;7.130;2023-03-05T09:49:58;4.50;99.90
15617;DHT22;7908;51.688;7.130;2023-03-05T09:52:41;4.40;99.90
15617;DHT22;7908;51.688;7.130;2023-03-05T09:55:21;4.20;99.90
15617;DHT22;7908;51.688;7.130;2023-03-05T09:57:55;4.20;99.90
15617;DHT22;7908;51.688;7.130;2023-03-05T10:00:32;4.10;99.90
15617;DHT22;7908;51.688;7.130;2023-03-05T10:03:05;4.10;99.90
15617;DHT22;7908;51.688;7.130;2023-03-05T10:05:57;4.20;99.90
15617;DHT22;7908;51.688;7.130;2023-03-05T10:08:40;4.20;99.90
15617;DHT22;7908;51.688;7.130;2023-03-05T10:14:01;4.40;99.90
15617;DHT22;7908;51.688;7.130;2023-03-05T10:22:46;4.70;99.90
15617;DHT22;7908;51.688;7.130;2023-03-05T10:25:28;4.70;99.90
15617;DHT22;7908;51.688;7.130;2023-03-05T10:28:04;4.80;99.90
15617;DHT22;7908;51.688;7.130;2023-03-05T10:30:52;5.00;99.90
15617;DHT22;7908;51.688;7.130;2023-03-05T10:33:29;5.20;99.90
15617;DHT22;7908;51.688;7.130;2023-03-05T10:36:25;5.40;99.90
15617;DHT22;7908;51.688;7.130;2023-03-05T10:42:04;5.40;99.90
15617;DHT22;7908;51.688;7.130;2023-03-05T10:44:36;5.50;99.90
15617;DHT22;7908;51.688;7.130;2023-03-05T10:47:13;5.50;99.90
15617;DHT22;7908;51.688;7.130;2023-03-05T10:49:49;5.60;99.90
15617;DHT22;7908;51.688;7.130;2023-03-05T10:52:26;5.60;99.90
15617;DHT22;7908;51.688;7.130;2023-03-05T10:54:56;5.60;99.90
15617;DHT22;7908;51.688;7.130;2023-03-05T10:57:30;5.50;99.90
15617;DHT22;7908;51.688;7.130;2023-03-05T11:00:11;5.60;99.90
15617;DHT22;7908;51.688;7.130;2023-03-05T11:02:58;5.60;99.90
15617;DHT22;7908;51.688;7.130;2023-03-05T11:05:38;5.70;99.90
15617;DHT22;7908;51.688;7.130;2023-03-05T11:08:25;5.60;99.90
15617;DHT22;7908;51.688;7.130;2023-03-05T11:11:19;5.60;99.90
15617;DHT22;7908;51.688;7.130;2023-03-05T11:13:58;5.60;99.90
15617;DHT22;7908;51.688;7.130;2023-03-05T11:16:34;5.60;99.90
15617;DHT22;7908;51.688;7.130;2023-03-05T11:19:18;5.50;99.90
15617;DHT22;7908;51.688;7.130;2023-03-05T11:22:05;5.50;99.90
15617;DHT22;7908;51.688;7.130;2023-03-05T11:24:38;5.60;99.90
15617;DHT22;7908;51.688;7.130;2023-03-05T11:27:23;5.60;99.90
15617;DHT22;7908;51.688;7.130;2023-03-05T11:29:56;5.60;99.90
15617;DHT22;7908;51.688;7.130;2023-03-05T11:32:27;5.60;99.90
15617;DHT22;7908;51.688;7.130;2023-03-05T11:34:57;5.60;99.90
15617;DHT22;7908;51.688;7.130;2023-03-05T11:37:27;5.60;99.90
15617;DHT22;7908;51.688;7.130;2023-03-05T11:40:19;5.50;99.90
15617;DHT22;7908;51.688;7.130;2023-03-05T11:42:54;5.70;99.90
15617;DHT22;7908;51.688;7.130;2023-03-05T11:45:29;5.60;99.90
15617;DHT22;7908;51.688;7.130;2023-03-05T11:48:05;5.60;99.90
15617;DHT22;7908;51.688;7.130;2023-03-05T11:50:37;5.60;99.90
15617;DHT22;7908;51.688;7.130;2023-03-05T11:53:12;5.60;99.90
15617;DHT22;7908;51.688;7.130;2023-03-05T11:55:47;5.60;99.90
15617;DHT22;7908;51.688;7.130;2023-03-05T11:58:29;5.70;99.90
15617;DHT22;7908;51.688;7.130;2023-03-05T12:01:02;5.70;99.90
15617;DHT22;7908;51.688;7.130;2023-03-05T12:03:38;5.70;99.90
15617;DHT22;7908;51.688;7.130;2023-03-05T12:06:14;5.70;99.90
15617;DHT22;7908;51.688;7.130;2023-03-05T12:08:47;5.70;99.90
15617;DHT22;7908;51.688;7.130;2023-03-05T12:11:19;5.80;99.90
15617;DHT22;7908;51.688;7.130;2023-03-05T12:13:54;5.70;99.90
15617;DHT22;7908;51.688;7.130;2023-03-05T12:16:29;5.90;99.90
15617;DHT22;7908;51.688;7.130;2023-03-05T12:19:17;5.90;99.90
15617;DHT22;7908;51.688;7.130;2023-03-05T12:21:49;5.90;99.90
15617;DHT22;7908;51.688;7.130;2023-03-05T12:24:39;6.00;99.90
15617;DHT22;7908;51.688;7.130;2023-03-05T12:27:13;6.20;99.90
15617;DHT22;7908;51.688;7.130;2023-03-05T12:29:47;6.10;99.90
15617;DHT22;7908;51.688;7.130;2023-03-05T12:35:35;6.30;99.90
15617;DHT22;7908;51.688;7.130;2023-03-05T12:38:17;6.30;99.90
15617;DHT22;7908;51.688;7.130;2023-03-05T12:44:20;6.40;99.90
15617;DHT22;7908;51.688;7.130;2023-03-05T12:47:15;6.50;99.90
15617;DHT22;7908;51.688;7.130;2023-03-05T12:49:47;6.50;99.90
15617;DHT22;7908;51.688;7.130;2023-03-05T12:52:24;6.50;99.90
15617;DHT22;7908;51.688;7.130;2023-03-05T12:55:15;6.50;99.90
15617;DHT22;7908;51.688;7.130;2023-03-05T12:57:49;6.50;99.90
15617;DHT22;7908;51.688;7.130;2023-03-05T13:00:25;6.50;99.90
15617;DHT22;7908;51.688;7.130;2023-03-05T13:02:57;6.50;99.90
15617;DHT22;7908;51.688;7.130;2023-03-05T13:05:29;6.60;99.90
15617;DHT22;7908;51.688;7.130;2023-03-05T13:08:19;6.70;99.90
15617;DHT22;7908;51.688;7.130;2023-03-05T13:10:52;6.60;99.90
15617;DHT22;7908;51.688;7.130;2023-03-05T13:13:24;6.60;99.90
15617;DHT22;7908;51.688;7.130;2023-03-05T13:15:54;6.60;99.90
15617;DHT22;7908;51.688;7.130;2023-03-05T13:18:26;6.60;99.90
15617;DHT22;7908;51.688;7.130;2023-03-05T13:21:02;6.70;99.90
15617;DHT22;7908;51.688;7.130;2023-03-05T13:23:34;6.60;99.90
15617;DHT22;7908;51.688;7.130;2023-03-05T13:26:11;6.50;99.90
15617;DHT22;7908;51.688;7.130;2023-03-05T13:28:43;6.60;99.90
15617;DHT22;7908;51.688;7.130;2023-03-05T13:31:13;6.60;99.90
15617;DHT22;7908;51.688;7.130;2023-03-05T13:33:52;6.70;99.90
15617;DHT22;7908;51.688;7.130;2023-03-05T13:36:24;6.60;99.90
15617;DHT22;7908;51.688;7.130;2023-03-05T13:38:55;6.50;99.90
15617;DHT22;7908;51.688;7.130;2023-03-05T13:41:27;6.60;99.90
15617;DHT22;7908;51.688;7.130;2023-03-05T13:43:57;6.70;99.90
15617;DHT22;7908;51.688;7.130;2023-03-05T13:46:30;6.60;99.90
15617;DHT22;7908;51.688;7.130;2023-03-05T13:49:18;6.60;99.90
15617;DHT22;7908;51.688;7.130;2023-03-05T13:51:51;6.60;99.90
15617;DHT22;7908;51.688;7.130;2023-03-05T13:54:27;6.60;99.90
15617;DHT22;7908;51.688;7.130;2023-03-05T13:57:02;6.60;99.90
15617;DHT22;7908;51.688;7.130;2023-03-05T13:59:34;6.60;99.90
15617;DHT22;7908;51.688;7.130;2023-03-05T14:02:15;6.60;99.90
15617;DHT22;7908;51.688;7.130;2023-03-05T14:04:45;6.70;99.90
15617;DHT22;7908;51.688;7.130;2023-03-05T14:07:27;6.70;99.90
15617;DHT22;7908;51.688;7.130;2023-03-05T14:09:59;6.80;99.90
15617;DHT22;7908;51.688;7.130;2023-03-05T14:12:33;6.80;99.90
15617;DHT22;7908;51.688;7.130;2023-03-05T14:15:04;6.80;99.90
15617;DHT22;7908;51.688;7.130;2023-03-05T14:17:47;6.80;99.90
15617;DHT22;7908;51.688;7.130;2023-03-05T14:20:22;6.80;99.90
15617;DHT22;7908;51.688;7.130;2023-03-05T14:22:53;6.90;99.90
15617;DHT22;7908;51.688;7.130;2023-03-05T14:25:33;6.90;99.90
15617;DHT22;7908;51.688;7.130;2023-03-05T14:28:04;7.00;99.90
15617;DHT22;7908;51.688;7.130;2023-03-05T14:30:33;7.00;99.90
15617;DHT22;7908;51.688;7.130;2023-03-05T14:33:04;6.90;99.90
15617;DHT22;7908;51.688;7.130;2023-03-05T14:35:36;6.90;99.90
15617;DHT22;7908;51.688;7.130;2023-03-05T14:38:14;7.00;99.90
15617;DHT22;7908;51.688;7.130;2023-03-05T14:40:47;7.00;99.90
15617;DHT22;7908;51.688;7.130;2023-03-05T14:43:17;7.10;99.90
15617;DHT22;7908;51.688;7.130;2023-03-05T14:45:46;7.00;99.90
15617;DHT22;7908;51.688;7.130;2023-03-05T14:48:19;7.00;99.90
15617;DHT22;7908;51.688;7.130;2023-03-05T14:50:51;7.00;99.90
15617;DHT22;7908;51.688;7.130;2023-03-05T14:53:28;7.10;99.90
15617;DHT22;7908;51.688;7.130;2023-03-05T14:56:03;7.10;99.90
15617;DHT22;7908;51.688;7.130;2023-03-05T14:58:36;7.20;99.90
15617;DHT22;7908;51.688;7.130;2023-03-05T15:01:05;7.20;99.90
15617;DHT22;7908;51.688;7.130;2023-03-05T15:03:34;7.20;99.90
15617;DHT22;7908;51.688;7.130;2023-03-05T15:06:04;7.20;99.90
15617;DHT22;7908;51.688;7.130;2023-03-05T15:08:33;7.10;99.90
15617;DHT22;7908;51.688;7.130;2023-03-05T15:11:04;7.20;99.90
15617;DHT22;7908;51.688;7.130;2023-03-05T15:13:36;7.20;99.90
15617;DHT22;7908;51.688;7.130;2023-03-05T15:16:10;7.10;99.90
15617;DHT22;7908;51.688;7.130;2023-03-05T15:18:41;7.00;99.90
15617;DHT22;7908;51.688;7.130;2023-03-05T15:21:10;7.00;99.90
15617;DHT22;7908;51.688;7.130;2023-03-05T15:23:39;6.90;99.90
15617;DHT22;7908;51.688;7.130;2023-03-05T15:26:13;6.90;99.90
15617;DHT22;7908;51.688;7.130;2023-03-05T15:28:42;6.90;99.90
15617;DHT22;7908;51.688;7.130;2023-03-05T15:31:11;6.90;99.90
15617;DHT22;7908;51.688;7.130;2023-03-05T15:33:40;6.80;99.90
15617;DHT22;7908;51.688;7.130;2023-03-05T15:36:09;6.70;99.90
15617;DHT22;7908;51.688;7.130;2023-03-05T15:38:40;6.60;99.90
15617;DHT22;7908;51.688;7.130;2023-03-05T15:41:10;6.60;99.90
15617;DHT22;7908;51.688;7.130;2023-03-05T15:43:40;6.60;99.90
15617;DHT22;7908;51.688;7.130;2023-03-05T15:46:09;6.60;99.90
15617;DHT22;7908;51.688;7.130;2023-03-05T15:48:38;6.60;99.90
15617;DHT22;7908;51.688;7.130;2023-03-05T15:51:13;6.50;99.90
15617;DHT22;7908;51.688;7.130;2023-03-05T15:53:41;6.60;99.90
15617;DHT22;7908;51.688;7.130;2023-03-05T15:56:15;6.50;99.90
15617;DHT22;7908;51.688;7.130;2023-03-05T15:58:44;6.50;99.90
15617;DHT22;7908;51.688;7.130;2023-03-05T16:01:13;6.50;99.90
15617;DHT22;7908;51.688;7.130;2023-03-05T16:03:45;6.50;99.90
15617;DHT22;7908;51.688;7.130;2023-03-05T16:06:16;6.40;99.90
15617;DHT22;7908;51.688;7.130;2023-03-05T16:08:51;6.50;99.90
15617;DHT22;7908;51.688;7.130;2023-03-05T16:11:25;6.40;99.90
15617;DHT22;7908;51.688;7.130;2023-03-05T16:13:55;6.40;99.90
15617;DHT22;7908;51.688;7.130;2023-03-05T16:16:27;6.40;99.90
15617;DHT22;7908;51.688;7.130;2023-03-05T16:18:56;6.40;99.90
15617;DHT22;7908;51.688;7.130;2023-03-05T16:21:29;6.40;99.90
15617;DHT22;7908;51.688;7.130;2023-03-05T16:23:58;6.40;99.90
15617;DHT22;7908;51.688;7.130;2023-03-05T16:26:29;6.40;99.90
15617;DHT22;7908;51.688;7.130;2023-03-05T16:28:57;6.40;99.90
15617;DHT22;7908;51.688;7.130;2023-03-05T16:31:28;6.30;99.90
15617;DHT22;7908;51.688;7.130;2023-03-05T16:33:58;6.30;99.90
15617;DHT22;7908;51.688;7.130;2023-03-05T16:36:29;6.30;99.90
15617;DHT22;7908;51.688;7.130;2023-03-05T16:39:03;6.30;99.90
15617;DHT22;7908;51.688;7.130;2023-03-05T16:41:34;6.30;99.90
15617;DHT22;7908;51.688;7.130;2023-03-05T16:44:05;6.20;99.90
15617;DHT22;7908;51.688;7.130;2023-03-05T16:46:33;6.20;99.90
15617;DHT22;7908;51.688;7.130;2023-03-05T16:49:03;6.20;99.90
15617;DHT22;7908;51.688;7.130;2023-03-05T16:51:36;6.20;99.90